Time;durP1;ratioP1;P1;durP2;ratioP2;P2;SDS_P1;SDS_P2;PMS_P1;PMS_P2;Temp;Humidity;BMP_temperature;BMP_pressure;BME280_temperature;BME280_humidity;BME280_pressure;Samples;Min_cycle;Max_cycle;Signal;HPM_P1;HPM_P2
2021/06/22 00:02:26;;;;;;;25.20;12.15;;;;;;;;;;4994874;28;20137;-63
2021/06/22 00:05:12;;;;;;;21.80;11.63;;;;;;;;;;4994251;28;20115;-62
2021/06/22 00:07:58;;;;;;;22.67;11.88;;;;;;;;;;4993439;28;20137;-62
2021/06/22 00:10:43;;;;;;;24.08;11.52;;;;;;;;;;4994580;28;20056;-63
2021/06/22 00:13:29;;;;;;;21.08;11.80;;;;;;;;;;4993774;28;20461;-63
2021/06/22 00:16:14;;;;;;;20.80;11.77;;;;;;;;;;4993344;28;20050;-62
2021/06/22 00:19:01;;;;;;;34.95;12.70;;;;;;;;;;4994244;28;20042;-63
2021/06/22 00:21:46;;;;;;;18.83;10.63;;;;;;;;;;4994233;28;20039;-62
2021/06/22 00:24:32;;;;;;;21.33;11.13;;;;;;;;;;4992698;28;20575;-62
2021/06/22 00:27:18;;;;;;;22.65;12.30;;;;;;;;;;4994099;28;20053;-63
2021/06/22 00:30:04;;;;;;;25.73;11.43;;;;;;;;;;4993951;28;20072;-63
2021/06/22 00:32:50;;;;;;;20.75;11.27;;;;;;;;;;4994451;28;20174;-62
2021/06/22 00:35:35;;;;;;;20.08;10.65;;;;;;;;;;4993827;28;20054;-62
2021/06/22 00:38:20;;;;;;;19.95;10.68;;;;;;;;;;4994270;28;20054;-63
2021/06/22 00:41:06;;;;;;;15.45;10.23;;;;;;;;;;4982227;28;20061;-63
2021/06/22 00:43:52;;;;;;;21.63;12.18;;;;;;;;;;4992034;28;20424;-63
2021/06/22 00:46:38;;;;;;;20.30;12.15;;;;;;;;;;4993090;28;20053;-63
2021/06/22 00:49:23;;;;;;;22.02;12.40;;;;;;;;;;4992979;28;20108;-63
2021/06/22 00:52:09;;;;;;;19.73;12.23;;;;;;;;;;4992955;28;20054;-62
2021/06/22 00:55:11;;;;;;;24.40;12.15;;;;;;;;;;4979165;28;20133;-63
2021/06/22 00:58:00;;;;;;;20.27;12.40;;;;;;;;;;4992789;28;20464;-63
2021/06/22 01:00:46;;;;;;;20.55;12.27;;;;;;;;;;4991954;28;20109;-63
2021/06/22 01:03:31;;;;;;;25.75;12.30;;;;;;;;;;4959808;28;20106;-63
2021/06/22 01:06:22;;;;;;;23.95;12.80;;;;;;;;;;4973182;28;20051;-63
2021/06/22 01:09:33;;;;;;;26.48;12.73;;;;;;;;;;4973902;28;20520;-63
2021/06/22 01:12:19;;;;;;;23.13;12.27;;;;;;;;;;4982004;28;20113;-63
2021/06/22 01:15:32;;;;;;;19.48;12.68;;;;;;;;;;4978782;28;20061;-63
2021/06/22 01:18:25;;;;;;;22.40;12.40;;;;;;;;;;4993512;28;20058;-63
2021/06/22 01:21:30;;;;;;;22.92;12.70;;;;;;;;;;4992187;28;20086;-62
2021/06/22 01:24:28;;;;;;;23.08;12.45;;;;;;;;;;4992488;28;20048;-62
2021/06/22 01:27:13;;;;;;;20.67;11.88;;;;;;;;;;4992131;28;20492;-62
2021/06/22 01:30:00;;;;;;;19.45;12.20;;;;;;;;;;4992739;28;20552;-63
2021/06/22 01:32:46;;;;;;;19.35;10.48;;;;;;;;;;4992564;28;20050;-62
2021/06/22 01:35:31;;;;;;;21.48;11.80;;;;;;;;;;4993208;28;20065;-63
2021/06/22 01:38:17;;;;;;;18.13;9.93;;;;;;;;;;4991996;28;20516;-63
2021/06/22 01:41:03;;;;;;;22.98;9.48;;;;;;;;;;4991617;28;20086;-63
2021/06/22 01:43:48;;;;;;;26.88;11.32;;;;;;;;;;4985374;28;20058;-63
2021/06/22 01:46:36;;;;;;;21.10;9.85;;;;;;;;;;4972714;28;20047;-62
2021/06/22 01:49:21;;;;;;;16.30;9.70;;;;;;;;;;4973377;28;20086;-63
2021/06/22 01:52:07;;;;;;;19.27;9.88;;;;;;;;;;4972468;28;20497;-62
2021/06/22 01:54:56;;;;;;;14.60;9.55;;;;;;;;;;4991219;28;20189;-62
2021/06/22 01:57:41;;;;;;;13.85;8.15;;;;;;;;;;4991944;28;20061;-63
2021/06/22 02:00:47;;;;;;;17.17;8.95;;;;;;;;;;4992294;28;20051;-63
2021/06/22 02:03:33;;;;;;;14.77;8.65;;;;;;;;;;4991042;28;20562;-63
2021/06/22 02:06:18;;;;;;;14.43;8.70;;;;;;;;;;4992790;28;20047;-62
2021/06/22 02:09:23;;;;;;;14.77;8.50;;;;;;;;;;4991455;28;20189;-62
2021/06/22 02:12:08;;;;;;;16.80;9.43;;;;;;;;;;4991914;28;20052;-62
2021/06/22 02:14:55;;;;;;;15.23;8.98;;;;;;;;;;4991778;28;20050;-63
2021/06/22 02:17:42;;;;;;;19.55;9.15;;;;;;;;;;4991537;28;20047;-63
2021/06/22 02:20:28;;;;;;;21.42;9.77;;;;;;;;;;4991273;28;20046;-63
2021/06/22 02:23:14;;;;;;;20.77;10.05;;;;;;;;;;4991464;28;20050;-63
2021/06/22 02:26:03;;;;;;;15.50;10.23;;;;;;;;;;4991636;28;20053;-62
2021/06/22 02:28:49;;;;;;;24.75;11.32;;;;;;;;;;4991524;28;20512;-63
2021/06/22 02:31:35;;;;;;;17.55;10.45;;;;;;;;;;4992161;28;20059;-61
2021/06/22 02:34:22;;;;;;;16.20;10.80;;;;;;;;;;4993280;28;20394;-63
2021/06/22 02:37:08;;;;;;;18.33;12.02;;;;;;;;;;4992341;28;20050;-63
2021/06/22 02:39:59;;;;;;;24.80;13.75;;;;;;;;;;4977290;28;20050;-63
2021/06/22 02:42:45;;;;;;;21.33;13.65;;;;;;;;;;4992485;28;20058;-62
2021/06/22 02:45:34;;;;;;;21.58;13.50;;;;;;;;;;4984658;28;20043;-63
2021/06/22 02:48:24;;;;;;;23.63;13.20;;;;;;;;;;4975655;28;20047;-63
2021/06/22 02:51:12;;;;;;;20.15;13.77;;;;;;;;;;4975592;28;20054;-62
2021/06/22 02:54:04;;;;;;;;;;;;;;;;;;4977118;28;20051;-62
2021/06/22 02:56:51;;;;;;;18.02;11.57;;;;;;;;;;4992853;28;19922;-62
2021/06/22 02:59:37;;;;;;;15.35;11.68;;;;;;;;;;4994724;28;20493;-62
2021/06/22 03:02:22;;;;;;;24.45;14.13;;;;;;;;;;4995757;28;20053;-62
2021/06/22 03:05:09;;;;;;;26.10;14.68;;;;;;;;;;4994878;28;20097;-63
2021/06/22 03:07:55;;;;;;;25.75;15.38;;;;;;;;;;4994921;28;20069;-63
2021/06/22 03:10:42;;;;;;;24.35;13.52;;;;;;;;;;4994456;28;20141;-63
2021/06/22 03:13:30;;;;;;;24.85;14.25;;;;;;;;;;4980059;28;20078;-62
2021/06/22 03:16:16;;;;;;;23.08;15.38;;;;;;;;;;4982608;28;20121;-62
2021/06/22 03:19:01;;;;;;;26.08;16.55;;;;;;;;;;4995601;28;20057;-63
2021/06/22 03:21:50;;;;;;;20.42;14.48;;;;;;;;;;4980453;28;20409;-63
2021/06/22 03:24:35;;;;;;;25.52;15.23;;;;;;;;;;4995429;28;20050;-63
2021/06/22 03:27:22;;;;;;;29.67;17.00;;;;;;;;;;4994602;28;20058;-62
2021/06/22 03:30:36;;;;;;;26.83;15.93;;;;;;;;;;4995013;28;20424;-62
2021/06/22 03:33:22;;;;;;;25.33;16.42;;;;;;;;;;5024192;22;20065;-63
2021/06/22 03:36:07;;;;;;;28.33;16.45;;;;;;;;;;5016373;28;20038;-63
2021/06/22 03:38:53;;;;;;;28.48;17.35;;;;;;;;;;5001765;28;20049;-62
2021/06/22 03:41:39;;;;;;;25.85;16.23;;;;;;;;;;5016261;28;20207;-63
2021/06/22 03:44:26;;;;;;;29.67;17.50;;;;;;;;;;4981813;28;20109;-62
2021/06/22 03:47:25;;;;;;;28.05;17.08;;;;;;;;;;4981030;28;20373;-63
2021/06/22 03:50:11;;;;;;;28.05;17.27;;;;;;;;;;4980836;28;20536;-62
2021/06/22 03:52:56;;;;;;;25.70;18.63;;;;;;;;;;4994843;28;20101;-62
2021/06/22 03:55:46;;;;;;;24.42;16.98;;;;;;;;;;4980537;28;20050;-63
2021/06/22 03:58:52;;;;;;;29.58;17.33;;;;;;;;;;4989308;28;20047;-63
2021/06/22 04:01:38;;;;;;;27.27;16.23;;;;;;;;;;4980437;28;20047;-63
2021/06/22 04:04:23;;;;;;;28.65;19.10;;;;;;;;;;4997090;28;20504;-62
2021/06/22 04:07:21;;;;;;;23.13;16.35;;;;;;;;;;4981974;28;20054;-62
2021/06/22 04:10:08;;;;;;;31.95;18.45;;;;;;;;;;4981688;28;20066;-63
2021/06/22 04:12:57;;;;;;;32.10;18.35;;;;;;;;;;4982185;28;20046;-63
2021/06/22 04:15:43;;;;;;;29.17;17.05;;;;;;;;;;4994564;28;20044;-63
2021/06/22 04:18:29;;;;;;;26.50;15.85;;;;;;;;;;4993828;28;20259;-63
2021/06/22 04:21:19;;;;;;;24.30;16.35;;;;;;;;;;4994358;28;20135;-63
2021/06/22 04:24:06;;;;;;;27.73;16.92;;;;;;;;;;4994318;28;20050;-63
2021/06/22 04:26:53;;;;;;;28.20;18.42;;;;;;;;;;4979918;28;20058;-63
2021/06/22 04:29:38;;;;;;;28.27;17.80;;;;;;;;;;4993281;28;20136;-63
2021/06/22 04:32:23;;;;;;;22.75;14.90;;;;;;;;;;4994401;28;20046;-63
2021/06/22 04:35:10;;;;;;;29.65;19.40;;;;;;;;;;4994299;28;20058;-63
2021/06/22 04:37:55;;;;;;;32.78;21.27;;;;;;;;;;4994044;28;20043;-62
2021/06/22 04:40:40;;;;;;;34.38;21.33;;;;;;;;;;4993876;28;20504;-63
2021/06/22 04:43:26;;;;;;;32.53;21.55;;;;;;;;;;4993939;28;20050;-63
2021/06/22 04:46:14;;;;;;;35.40;21.13;;;;;;;;;;4994073;28;20113;-63
2021/06/22 04:48:59;;;;;;;35.75;22.23;;;;;;;;;;4993152;28;20039;-63
2021/06/22 04:51:44;;;;;;;31.30;20.27;;;;;;;;;;4993717;28;20053;-63
2021/06/22 04:54:30;;;;;;;30.63;18.80;;;;;;;;;;4994002;28;20042;-63
2021/06/22 04:57:19;;;;;;;28.95;19.35;;;;;;;;;;4993818;28;20101;-63
2021/06/22 05:00:05;;;;;;;26.48;19.50;;;;;;;;;;4992784;28;20137;-63
2021/06/22 05:02:51;;;;;;;29.17;19.40;;;;;;;;;;4993536;28;20053;-63
2021/06/22 05:05:36;;;;;;;32.42;20.88;;;;;;;;;;4992607;28;20532;-63
2021/06/22 05:08:21;;;;;;;22.67;17.35;;;;;;;;;;4993792;28;20082;-63
2021/06/22 05:11:07;;;;;;;23.42;18.33;;;;;;;;;;4993672;28;20066;-62
2021/06/22 05:13:52;;;;;;;26.90;17.83;;;;;;;;;;4993469;28;20075;-63
2021/06/22 05:16:37;;;;;;;21.52;15.38;;;;;;;;;;4993728;28;20050;-63
2021/06/22 05:19:23;;;;;;;21.10;15.68;;;;;;;;;;4993378;28;20182;-63
2021/06/22 05:22:08;;;;;;;23.58;15.20;;;;;;;;;;4992428;28;20053;-63
2021/06/22 05:24:54;;;;;;;22.40;16.33;;;;;;;;;;4993426;28;20110;-63
2021/06/22 05:27:39;;;;;;;24.10;16.35;;;;;;;;;;4993415;28;20050;-63
2021/06/22 05:30:24;;;;;;;22.63;16.10;;;;;;;;;;4992074;28;20401;-63
2021/06/22 05:33:10;;;;;;;26.10;17.52;;;;;;;;;;4992844;28;20136;-63
2021/06/22 05:35:56;;;;;;;20.70;16.08;;;;;;;;;;4993165;28;20054;-62
2021/06/22 05:38:41;;;;;;;21.40;16.38;;;;;;;;;;4993192;28;20057;-63
2021/06/22 05:41:26;;;;;;;25.83;17.25;;;;;;;;;;4991952;28;20050;-63
2021/06/22 05:44:11;;;;;;;22.27;16.70;;;;;;;;;;4992123;28;20530;-63
2021/06/22 05:46:57;;;;;;;22.15;16.90;;;;;;;;;;4992979;28;20121;-63
2021/06/22 05:49:42;;;;;;;23.58;16.23;;;;;;;;;;4992863;28;20078;-63
2021/06/22 05:52:27;;;;;;;22.05;15.60;;;;;;;;;;4991753;28;20049;-63
2021/06/22 05:55:16;;;;;;;20.45;16.30;;;;;;;;;;4992764;28;20046;-63
2021/06/22 05:58:02;;;;;;;28.33;15.80;;;;;;;;;;4992605;28;20070;-63
2021/06/22 06:00:47;;;;;;;23.23;15.07;;;;;;;;;;4984366;28;20493;-63
2021/06/22 06:03:34;;;;;;;26.48;15.25;;;;;;;;;;4978148;28;20054;-63
2021/06/22 06:06:19;;;;;;;22.48;13.52;;;;;;;;;;4992686;28;20133;-64
2021/06/22 06:09:05;;;;;;;16.17;12.20;;;;;;;;;;4992977;28;20089;-63
2021/06/22 06:11:50;;;;;;;17.75;12.30;;;;;;;;;;4987045;28;20050;-63
2021/06/22 06:14:37;;;;;;;21.23;11.73;;;;;;;;;;4991115;28;20050;-64
2021/06/22 06:17:22;;;;;;;17.75;9.95;;;;;;;;;;4992789;28;20050;-63
2021/06/22 06:20:09;;;;;;;18.90;10.98;;;;;;;;;;4991776;28;20057;-63
2021/06/22 06:22:54;;;;;;;13.50;8.85;;;;;;;;;;4995217;28;20515;-64
2021/06/22 06:25:39;;;;;;;13.30;10.75;;;;;;;;;;4998470;28;20133;-64
2021/06/22 06:28:29;;;;;;;15.15;9.82;;;;;;;;;;4999675;28;20528;-63
2021/06/22 06:31:14;;;;;;;13.55;9.00;;;;;;;;;;4998534;28;20038;-63
2021/06/22 06:34:00;;;;;;;17.23;8.60;;;;;;;;;;4998859;28;20050;-63
2021/06/22 06:36:47;;;;;;;14.98;8.73;;;;;;;;;;4998644;28;20042;-63
2021/06/22 06:39:33;;;;;;;13.70;8.18;;;;;;;;;;4997149;28;20053;-63
2021/06/22 06:42:18;;;;;;;18.63;9.20;;;;;;;;;;4994926;28;20109;-62
2021/06/22 06:45:04;;;;;;;15.30;8.15;;;;;;;;;;4994239;28;20051;-63
2021/06/22 06:47:50;;;;;;;14.40;7.18;;;;;;;;;;4995201;28;20050;-63
2021/06/22 06:50:35;;;;;;;9.70;7.45;;;;;;;;;;4994742;28;20072;-63
2021/06/22 06:53:21;;;;;;;12.80;7.20;;;;;;;;;;4994647;28;20050;-63
2021/06/22 06:56:06;;;;;;;11.00;6.93;;;;;;;;;;4994693;28;20058;-63
2021/06/22 06:58:54;;;;;;;18.52;8.30;;;;;;;;;;4995035;28;20049;-63
2021/06/22 07:01:40;;;;;;;14.95;6.28;;;;;;;;;;4994527;28;20046;-63
2021/06/22 07:04:26;;;;;;;12.07;6.72;;;;;;;;;;4993595;28;20042;-63
2021/06/22 07:07:11;;;;;;;12.57;5.88;;;;;;;;;;4997193;28;20045;-64
2021/06/22 07:09:56;;;;;;;10.95;6.50;;;;;;;;;;4998526;28;20065;-64
2021/06/22 07:12:42;;;;;;;17.88;6.90;;;;;;;;;;4997111;28;20055;-63
2021/06/22 07:15:28;;;;;;;10.82;5.47;;;;;;;;;;4997397;28;20054;-64
2021/06/22 07:18:14;;;;;;;11.43;6.22;;;;;;;;;;4996221;28;20050;-64
2021/06/22 07:21:00;;;;;;;9.65;5.40;;;;;;;;;;4994101;28;20053;-64
2021/06/22 07:23:45;;;;;;;9.25;5.13;;;;;;;;;;4994490;28;20054;-64
2021/06/22 07:26:31;;;;;;;15.00;6.25;;;;;;;;;;4992912;28;20046;-64
2021/06/22 07:29:16;;;;;;;13.75;6.38;;;;;;;;;;4994752;28;20133;-64
2021/06/22 07:32:01;;;;;;;13.70;5.53;;;;;;;;;;4991471;28;67911;-64
2021/06/22 07:34:47;;;;;;;10.85;4.45;;;;;;;;;;4982002;28;20389;-65
2021/06/22 07:37:37;;;;;;;11.80;4.65;;;;;;;;;;4982841;28;20054;-64
2021/06/22 07:40:43;;;;;;;8.35;4.18;;;;;;;;;;4980543;28;20420;-64
2021/06/22 07:43:28;;;;;;;11.60;4.50;;;;;;;;;;4995036;28;20050;-64
2021/06/22 07:46:13;;;;;;;10.85;5.35;;;;;;;;;;4994404;28;20049;-64
2021/06/22 07:48:59;;;;;;;10.05;4.18;;;;;;;;;;4991772;28;20122;-64
2021/06/22 07:51:44;;;;;;;9.18;4.07;;;;;;;;;;4993024;28;20050;-64
2021/06/22 07:54:30;;;;;;;7.57;4.55;;;;;;;;;;4993939;28;20058;-65
2021/06/22 07:57:18;;;;;;;12.93;5.05;;;;;;;;;;4992538;28;20121;-64
2021/06/22 08:00:10;;;;;;;8.98;4.70;;;;;;;;;;4994253;28;20049;-64
2021/06/22 08:02:55;;;;;;;13.07;5.05;;;;;;;;;;4992924;28;20050;-64
2021/06/22 08:05:41;;;;;;;16.88;5.63;;;;;;;;;;4993992;28;20059;-64
2021/06/22 08:08:26;;;;;;;10.70;5.38;;;;;;;;;;4994192;28;20038;-65
2021/06/22 08:11:12;;;;;;;11.60;4.30;;;;;;;;;;4975036;28;20419;-64
2021/06/22 08:13:57;;;;;;;9.55;4.28;;;;;;;;;;4975259;28;20051;-65
2021/06/22 08:16:43;;;;;;;7.05;3.50;;;;;;;;;;4977809;28;20089;-65
2021/06/22 08:19:28;;;;;;;11.18;3.85;;;;;;;;;;4993176;28;20058;-64
2021/06/22 08:22:14;;;;;;;10.65;4.28;;;;;;;;;;4994445;28;20500;-64
2021/06/22 08:24:59;;;;;;;9.27;3.50;;;;;;;;;;4994552;28;20057;-64
2021/06/22 08:27:45;;;;;;;11.88;3.90;;;;;;;;;;4990601;28;20050;-64
2021/06/22 08:30:31;;;;;;;6.22;3.10;;;;;;;;;;4992703;28;20417;-64
2021/06/22 08:33:16;;;;;;;7.50;3.10;;;;;;;;;;4993438;28;20042;-64
2021/06/22 08:36:03;;;;;;;8.88;3.42;;;;;;;;;;4989655;28;20046;-65
2021/06/22 08:38:50;;;;;;;7.07;3.55;;;;;;;;;;4995461;28;20456;-65
2021/06/22 08:41:35;;;;;;;8.40;3.40;;;;;;;;;;4994659;28;20046;-65
2021/06/22 08:44:20;;;;;;;6.95;3.03;;;;;;;;;;4977447;28;20053;-65
2021/06/22 08:47:06;;;;;;;6.95;3.53;;;;;;;;;;4979866;28;20058;-65
2021/06/22 08:49:52;;;;;;;13.15;3.03;;;;;;;;;;4994401;28;20112;-64
2021/06/22 08:52:37;;;;;;;11.60;3.45;;;;;;;;;;4991866;28;20424;-65
2021/06/22 08:55:26;;;;;;;7.30;3.22;;;;;;;;;;4995123;28;20485;-65
2021/06/22 08:58:13;;;;;;;13.38;4.15;;;;;;;;;;4995205;28;20571;-65
2021/06/22 09:00:58;;;;;;;6.93;3.17;;;;;;;;;;4995272;28;20053;-64
2021/06/22 09:03:44;;;;;;;5.55;2.72;;;;;;;;;;4994951;28;20042;-64
2021/06/22 09:06:39;;;;;;;10.60;3.20;;;;;;;;;;4995008;28;20046;-65
2021/06/22 09:09:33;;;;;;;11.32;3.40;;;;;;;;;;4992982;28;20412;-64
2021/06/22 09:12:19;;;;;;;6.85;2.50;;;;;;;;;;4993408;28;20590;-63
2021/06/22 09:15:06;;;;;;;7.18;2.85;;;;;;;;;;4979127;28;20524;-64
2021/06/22 09:17:52;;;;;;;7.18;3.00;;;;;;;;;;4978898;28;20423;-63
2021/06/22 09:20:41;;;;;;;9.43;2.78;;;;;;;;;;4977762;28;20053;-63
2021/06/22 09:23:30;;;;;;;8.48;2.88;;;;;;;;;;4993341;28;20436;-64
2021/06/22 09:26:16;;;;;;;6.50;3.00;;;;;;;;;;4993417;28;20050;-63
2021/06/22 09:29:12;;;;;;;6.63;2.42;;;;;;;;;;4992732;28;20516;-64
2021/06/22 09:32:00;;;;;;;9.27;3.40;;;;;;;;;;4992569;28;20093;-63
2021/06/22 09:34:46;;;;;;;7.43;2.58;;;;;;;;;;4995039;28;20065;-64
2021/06/22 09:37:49;;;;;;;5.78;2.78;;;;;;;;;;4994797;28;20050;-64
2021/06/22 09:40:35;;;;;;;7.70;2.42;;;;;;;;;;4993020;28;20038;-64
2021/06/22 09:43:19;;;;;;;7.80;2.40;;;;;;;;;;4994487;28;20121;-64
2021/06/22 09:46:06;;;;;;;8.18;2.70;;;;;;;;;;4992806;28;20049;-63
2021/06/22 09:48:54;;;;;;;5.88;2.72;;;;;;;;;;4992677;28;20453;-64
2021/06/22 09:51:46;;;;;;;5.65;2.72;;;;;;;;;;4990940;28;20046;-64
2021/06/22 09:54:34;;;;;;;4.03;2.15;;;;;;;;;;4993372;28;20046;-63
2021/06/22 09:57:20;;;;;;;7.68;1.83;;;;;;;;;;4993636;28;20189;-64
2021/06/22 10:00:08;;;;;;;5.38;2.30;;;;;;;;;;4993300;28;20058;-63
2021/06/22 10:02:55;;;;;;;6.22;2.72;;;;;;;;;;4992773;28;20042;-64
2021/06/22 10:05:50;;;;;;;6.38;2.25;;;;;;;;;;4993991;28;20050;-64
2021/06/22 10:08:50;;;;;;;9.90;2.58;;;;;;;;;;4993473;28;20070;-64
2021/06/22 10:11:42;;;;;;;4.50;2.47;;;;;;;;;;4977723;28;20101;-64
2021/06/22 10:14:31;;;;;;;3.92;2.65;;;;;;;;;;4988944;28;20065;-63
2021/06/22 10:17:18;;;;;;;5.68;2.67;;;;;;;;;;4993358;28;20061;-64
2021/06/22 10:20:07;;;;;;;4.78;2.35;;;;;;;;;;4993081;28;20132;-64
2021/06/22 10:22:53;;;;;;;6.47;2.50;;;;;;;;;;4992086;28;20074;-63
2021/06/22 10:25:39;;;;;;;4.57;2.13;;;;;;;;;;4979007;28;20174;-64
2021/06/22 10:28:24;;;;;;;7.50;2.70;;;;;;;;;;4993288;28;20126;-64
2021/06/22 10:31:09;;;;;;;5.72;2.53;;;;;;;;;;4992404;28;20046;-64
2021/06/22 10:33:56;;;;;;;6.80;2.70;;;;;;;;;;4992183;28;20567;-64
2021/06/22 10:36:46;;;;;;;7.53;2.95;;;;;;;;;;4978575;28;20050;-63
2021/06/22 10:39:31;;;;;;;5.78;2.35;;;;;;;;;;4978003;28;20042;-64
2021/06/22 10:42:17;;;;;;;5.53;2.53;;;;;;;;;;4992735;28;20090;-64
2021/06/22 10:45:02;;;;;;;8.77;2.97;;;;;;;;;;4991849;28;20465;-64
2021/06/22 10:47:48;;;;;;;7.70;3.35;;;;;;;;;;4992436;28;20081;-64
2021/06/22 10:50:33;;;;;;;7.40;2.78;;;;;;;;;;4978038;28;20057;-64
2021/06/22 10:53:18;;;;;;;8.88;3.28;;;;;;;;;;4991602;28;20133;-64
2021/06/22 10:56:10;;;;;;;7.88;3.10;;;;;;;;;;4977746;28;20065;-64
2021/06/22 10:59:19;;;;;;;4.87;2.73;;;;;;;;;;4977981;28;20137;-63
2021/06/22 11:02:05;;;;;;;9.27;3.47;;;;;;;;;;4989852;28;20042;-63
2021/06/22 11:05:14;;;;;;;9.85;3.75;;;;;;;;;;4992247;28;20047;-64
2021/06/22 11:08:08;;;;;;;7.65;3.60;;;;;;;;;;4993678;28;20539;-64
2021/06/22 11:10:56;;;;;;;8.35;3.75;;;;;;;;;;4995579;28;20041;-63
2021/06/22 11:13:55;;;;;;;8.85;3.67;;;;;;;;;;4995039;28;20108;-63
2021/06/22 11:16:41;;;;;;;13.75;4.07;;;;;;;;;;4995461;28;20421;-63
2021/06/22 11:19:26;;;;;;;10.10;4.07;;;;;;;;;;4995605;28;20077;-64
2021/06/22 11:22:11;;;;;;;8.60;3.13;;;;;;;;;;4962025;28;20063;-64
2021/06/22 11:25:00;;;;;;;9.25;3.85;;;;;;;;;;4993020;28;20105;-64
2021/06/22 11:28:06;;;;;;;11.40;3.80;;;;;;;;;;4995462;28;20649;-64
2021/06/22 11:31:00;;;;;;;11.30;4.05;;;;;;;;;;4995142;28;20057;-64
2021/06/22 11:33:45;;;;;;;8.40;3.40;;;;;;;;;;4995225;28;20058;-63
2021/06/22 11:36:31;;;;;;;13.98;3.80;;;;;;;;;;4994515;28;20555;-64
2021/06/22 11:39:18;;;;;;;7.93;3.25;;;;;;;;;;4988994;28;20186;-64
2021/06/22 11:42:09;;;;;;;8.13;3.47;;;;;;;;;;4987725;28;20046;-64
2021/06/22 11:44:57;;;;;;;9.27;3.55;;;;;;;;;;4995168;28;20234;-64
2021/06/22 11:47:45;;;;;;;9.75;3.72;;;;;;;;;;4993503;28;20057;-64
2021/06/22 11:50:31;;;;;;;8.50;3.72;;;;;;;;;;4994678;28;20053;-64
2021/06/22 11:53:16;;;;;;;10.02;3.90;;;;;;;;;;4994039;28;20217;-64
2021/06/22 11:56:02;;;;;;;9.10;3.67;;;;;;;;;;4981908;28;20043;-64
2021/06/22 11:58:48;;;;;;;8.90;3.42;;;;;;;;;;4975646;28;20515;-64
2021/06/22 12:01:33;;;;;;;6.93;3.17;;;;;;;;;;4987539;28;20050;-64
2021/06/22 12:04:19;;;;;;;8.50;3.63;;;;;;;;;;4994714;28;20046;-64
2021/06/22 12:07:04;;;;;;;9.93;4.22;;;;;;;;;;4979730;28;20042;-64
2021/06/22 12:09:50;;;;;;;15.45;4.90;;;;;;;;;;4994377;28;20046;-64
2021/06/22 12:12:42;;;;;;;16.33;4.90;;;;;;;;;;4993717;28;20046;-64
2021/06/22 12:15:28;;;;;;;7.50;3.67;;;;;;;;;;4994598;28;20061;-64
2021/06/22 12:18:13;;;;;;;11.50;4.75;;;;;;;;;;4993843;28;20057;-64
2021/06/22 12:20:59;;;;;;;11.48;4.53;;;;;;;;;;4993788;28;20079;-64
2021/06/22 12:23:44;;;;;;;9.27;4.10;;;;;;;;;;4979935;28;20046;-64
2021/06/22 12:26:29;;;;;;;9.65;4.38;;;;;;;;;;4994378;28;20062;-64
2021/06/22 12:29:17;;;;;;;5.47;3.72;;;;;;;;;;4993958;28;20453;-64
2021/06/22 12:32:04;;;;;;;10.05;4.85;;;;;;;;;;4994650;28;20133;-64
2021/06/22 12:34:49;;;;;;;8.18;4.43;;;;;;;;;;4995345;28;20054;-64
2021/06/22 12:37:34;;;;;;;8.40;4.57;;;;;;;;;;4966486;28;20046;-64
2021/06/22 12:40:23;;;;;;;8.48;4.80;;;;;;;;;;4996919;28;20125;-65
2021/06/22 12:43:08;;;;;;;11.93;4.82;;;;;;;;;;4994867;28;20053;-64
2021/06/22 12:46:01;;;;;;;7.68;3.63;;;;;;;;;;4992654;28;20053;-65
2021/06/22 12:48:56;;;;;;;11.07;4.40;;;;;;;;;;4994735;28;20158;-65
2021/06/22 12:51:43;;;;;;;11.80;4.78;;;;;;;;;;4995189;28;20097;-64
2021/06/22 12:54:29;;;;;;;9.48;4.43;;;;;;;;;;4994801;28;20698;-65
2021/06/22 12:57:21;;;;;;;8.95;4.47;;;;;;;;;;4995702;28;20060;-64
2021/06/22 13:00:06;;;;;;;;;;;;;;;;;;4995221;28;20058;-64
2021/06/22 13:02:51;;;;;;;7.13;4.47;;;;;;;;;;4995452;28;19922;-64
2021/06/22 13:05:38;;;;;;;5.85;4.13;;;;;;;;;;4992460;28;20217;-64
2021/06/22 13:08:24;;;;;;;15.55;5.45;;;;;;;;;;4989945;28;20178;-64
2021/06/22 13:11:09;;;;;;;8.15;4.53;;;;;;;;;;4973794;28;20046;-63
2021/06/22 13:14:07;;;;;;;7.95;4.93;;;;;;;;;;4959336;28;20516;-63
2021/06/22 13:17:02;;;;;;;8.82;5.53;;;;;;;;;;4973944;28;20091;-64
2021/06/22 13:19:53;;;;;;;13.35;5.68;;;;;;;;;;4981413;28;20055;-63
2021/06/22 13:22:38;;;;;;;8.38;4.95;;;;;;;;;;4991818;28;20113;-64
2021/06/22 13:25:23;;;;;;;10.32;5.55;;;;;;;;;;4993173;28;20390;-64
2021/06/22 13:28:13;;;;;;;10.73;5.95;;;;;;;;;;4978521;28;20077;-63
2021/06/22 13:31:11;;;;;;;8.82;5.25;;;;;;;;;;4992102;28;20046;-64
2021/06/22 13:34:14;;;;;;;5.97;4.78;;;;;;;;;;4992963;28;20062;-63
2021/06/22 13:37:02;;;;;;;8.68;5.38;;;;;;;;;;4993209;28;20057;-63
2021/06/22 13:39:54;;;;;;;9.68;5.55;;;;;;;;;;4991898;28;20046;-65
2021/06/22 13:42:39;;;;;;;10.97;4.87;;;;;;;;;;4992956;28;20129;-65
2021/06/22 13:45:24;;;;;;;6.05;4.18;;;;;;;;;;4993106;28;20050;-65
2021/06/22 13:48:17;;;;;;;8.57;4.72;;;;;;;;;;4992293;28;20053;-66
2021/06/22 13:51:06;;;;;;;6.38;4.78;;;;;;;;;;4992585;28;20056;-65
2021/06/22 13:54:02;;;;;;;8.05;4.75;;;;;;;;;;4992824;28;20053;-65
2021/06/22 13:56:47;;;;;;;8.98;5.57;;;;;;;;;;4992665;28;20046;-65
2021/06/22 13:59:32;;;;;;;10.25;4.90;;;;;;;;;;4991896;28;20374;-64
2021/06/22 14:02:19;;;;;;;8.38;5.60;;;;;;;;;;4992506;28;20047;-64
2021/06/22 14:05:05;;;;;;;7.78;6.20;;;;;;;;;;4992596;28;20073;-63
2021/06/22 14:07:51;;;;;;;8.85;5.47;;;;;;;;;;4992672;28;20417;-63
2021/06/22 14:10:40;;;;;;;7.35;5.30;;;;;;;;;;4991483;28;20141;-64
2021/06/22 14:13:27;;;;;;;7.82;5.80;;;;;;;;;;4992488;28;20045;-64
2021/06/22 14:16:12;;;;;;;10.38;6.03;;;;;;;;;;4992738;28;20054;-63
2021/06/22 14:18:58;;;;;;;8.00;5.55;;;;;;;;;;4990918;28;20050;-63
2021/06/22 14:21:43;;;;;;;6.95;4.88;;;;;;;;;;4993669;28;20057;-64
2021/06/22 14:24:29;;;;;;;13.57;6.75;;;;;;;;;;4994046;28;20038;-64
2021/06/22 14:27:14;;;;;;;10.07;5.68;;;;;;;;;;4994104;28;20046;-65
2021/06/22 14:29:59;;;;;;;8.70;5.70;;;;;;;;;;4985036;28;20577;-64
2021/06/22 14:32:46;;;;;;;10.10;5.90;;;;;;;;;;4993183;28;20050;-63
2021/06/22 14:35:31;;;;;;;11.80;5.65;;;;;;;;;;4993656;28;20058;-69
2021/06/22 14:38:16;;;;;;;8.20;5.45;;;;;;;;;;4994359;28;20490;-64
2021/06/22 14:41:02;;;;;;;9.05;6.38;;;;;;;;;;4992213;28;20133;-64
2021/06/22 14:43:47;;;;;;;8.50;5.70;;;;;;;;;;4996876;28;20050;-64
2021/06/22 14:46:32;;;;;;;12.00;5.57;;;;;;;;;;4997511;28;20057;-64
2021/06/22 14:49:18;;;;;;;9.52;5.53;;;;;;;;;;4997819;28;20050;-63
2021/06/22 14:52:04;;;;;;;9.10;5.28;;;;;;;;;;4997059;28;20046;-63
2021/06/22 14:54:49;;;;;;;7.88;5.38;;;;;;;;;;4998615;28;20042;-64
2021/06/22 14:57:36;;;;;;;7.10;5.40;;;;;;;;;;4998300;28;20404;-64
2021/06/22 15:00:21;;;;;;;8.32;5.13;;;;;;;;;;4995423;28;20125;-63
2021/06/22 15:03:07;;;;;;;7.82;5.18;;;;;;;;;;4994624;28;20057;-63
2021/06/22 15:05:52;;;;;;;8.38;4.20;;;;;;;;;;4995852;28;20527;-63
2021/06/22 15:08:38;;;;;;;6.25;4.82;;;;;;;;;;4995942;28;20078;-63
2021/06/22 15:11:23;;;;;;;7.50;4.10;;;;;;;;;;4994128;28;20135;-64
2021/06/22 15:14:08;;;;;;;8.98;4.68;;;;;;;;;;4998500;28;20089;-64
2021/06/22 15:16:54;;;;;;;5.22;4.15;;;;;;;;;;4979546;28;20101;-64
2021/06/22 15:19:39;;;;;;;9.48;4.85;;;;;;;;;;4997857;28;20053;-64
2021/06/22 15:22:25;;;;;;;11.65;4.47;;;;;;;;;;4995007;28;20053;-64
2021/06/22 15:25:11;;;;;;;9.18;4.20;;;;;;;;;;4997188;28;20519;-64
2021/06/22 15:27:56;;;;;;;11.07;4.78;;;;;;;;;;4997237;28;20528;-64
2021/06/22 15:30:41;;;;;;;10.48;5.05;;;;;;;;;;4997524;28;20465;-64
2021/06/22 15:33:27;;;;;;;5.28;3.95;;;;;;;;;;4974409;28;20086;-64
2021/06/22 15:36:12;;;;;;;7.22;4.45;;;;;;;;;;4976556;28;20125;-64
2021/06/22 15:38:57;;;;;;;9.43;5.22;;;;;;;;;;4977451;28;20050;-64
2021/06/22 15:41:43;;;;;;;8.95;4.07;;;;;;;;;;4977367;28;20051;-64
2021/06/22 15:44:28;;;;;;;9.52;4.07;;;;;;;;;;5053446;23;20131;-64
2021/06/22 15:47:13;;;;;;;8.38;3.95;;;;;;;;;;5039311;28;20048;-64
2021/06/22 15:49:59;;;;;;;6.43;3.78;;;;;;;;;;5054084;28;20045;-64
2021/06/22 15:52:45;;;;;;;11.48;3.72;;;;;;;;;;5051956;28;20048;-64
2021/06/22 15:55:30;;;;;;;9.80;3.80;;;;;;;;;;5045340;28;20059;-64
2021/06/22 15:58:15;;;;;;;7.20;3.42;;;;;;;;;;5038829;28;20180;-64
2021/06/22 16:01:02;;;;;;;7.75;3.83;;;;;;;;;;5051155;28;20060;-64
2021/06/22 16:03:47;;;;;;;6.88;3.78;;;;;;;;;;5042880;28;20630;-64
2021/06/22 16:06:32;;;;;;;5.95;2.80;;;;;;;;;;5051297;28;20535;-64
2021/06/22 16:09:18;;;;;;;10.85;3.95;;;;;;;;;;5051013;28;20060;-64
2021/06/22 16:12:03;;;;;;;7.03;3.35;;;;;;;;;;5041942;28;20048;-64
2021/06/22 16:14:48;;;;;;;6.85;3.17;;;;;;;;;;5049038;28;20059;-64
2021/06/22 16:17:34;;;;;;;6.93;3.38;;;;;;;;;;5050650;28;20071;-64
2021/06/22 16:20:22;;;;;;;6.18;2.80;;;;;;;;;;5051286;28;20531;-64
2021/06/22 16:23:08;;;;;;;10.35;2.72;;;;;;;;;;5051521;28;20623;-64
2021/06/22 16:25:53;;;;;;;11.10;3.20;;;;;;;;;;5043706;28;20071;-64
2021/06/22 16:28:39;;;;;;;8.00;2.95;;;;;;;;;;5051132;28;20037;-64
2021/06/22 16:31:24;;;;;;;11.82;3.13;;;;;;;;;;5048686;28;20143;-64